Zenith Leader — 2ACU6 — position and weather

sailwx.info

Track history (hours):
 
Tides and Currents Weather Stations Pressure Air Temp Water Temp Dewpoint Dewpoint Depression Visibility Wind Speed Wind Dir Waves Ship Positions

Zenith Leader

Last reported at 2015-May-20 04:28 UTC. Time now 2015-May-28 12:13 UTC.
Position N 33°44' W 118°32'.
Warning: this ship's position is 8 days out of date.

Length 200 m; draft 8.9 m.

Type: Cargo ship. MMSI: 235058697.

Date/timePositionNaut miles runAvg speedWind from/ knotsBaromVisibWave heightAir tempDewpointWater temp
2015-May-20 04:28N 33°44' W 118°32'10 5.2
2015-May-20 02:27N 33°39' W 118°21'5 5.9
2015-May-20 01:33N 33°39' W 118°14'5 5.0
2015-May-20 00:33N 33°43' W 118°11'4 3.8
2015-May-19 23:31N 33°46' W 118°13'0 0.0
2015-May-19 22:33N 33°46' W 118°13'0 0.0
2015-May-19 21:33N 33°46' W 118°13'0 0.0
2015-May-19 20:33N 33°46' W 118°13'0 0.0
2015-May-19 19:30N 33°46' W 118°13'0 0.0
2015-May-19 18:33N 33°46' W 118°13'0 0.0
2015-May-19 17:33N 33°46' W 118°13'0 0.0
2015-May-19 16:33N 33°46' W 118°13'0 0.0
2015-May-19 15:33N 33°46' W 118°13'0 0.0
2015-May-19 14:33N 33°46' W 118°13'0 0.0
2015-May-19 13:33N 33°46' W 118°13'1 1.4
2015-May-19 12:33N 33°45' W 118°13'7 6.9
2015-May-19 11:30N 33°38' W 118°10'6 6.2
2015-May-19 10:31N 33°32' W 118°08'9 9.7
2015-May-19 09:33N 33°23' W 118°04'1110.6
2015-May-19 08:33N 33°14' W 118°00'1211.9
2015-May-19 07:34N 33°02' W 117°56'1716.9
2015-May-19 06:33N 32°46' W 117°52'1616.0
2015-May-19 05:33N 32°31' W 117°46'1716.5
2015-May-19 04:33N 32°15' W 117°39'  
Track history (hours):
 
Tides and Currents Weather Stations Pressure Air Temp Water Temp Dewpoint Dewpoint Depression Visibility Wind Speed Wind Dir Waves Ship Positions

Zenith Leader

Last reported at 2015-May-20 04:28 UTC. Time now 2015-May-28 12:13 UTC.
Position N 33°44' W 118°32'.
Warning: this ship's position is 8 days out of date.

Length 200 m; draft 8.9 m.

Type: Cargo ship. MMSI: 235058697.

Date/timePositionNaut miles runAvg speedWind from/ knotsBaromVisibWave heightAir tempDewpointWater temp
2015-May-20 04:28N 33°44' W 118°32'10 5.2
2015-May-20 02:27N 33°39' W 118°21'5 5.9
2015-May-20 01:33N 33°39' W 118°14'5 5.0
2015-May-20 00:33N 33°43' W 118°11'4 3.8
2015-May-19 23:31N 33°46' W 118°13'0 0.0
2015-May-19 22:33N 33°46' W 118°13'0 0.0
2015-May-19 21:33N 33°46' W 118°13'0 0.0
2015-May-19 20:33N 33°46' W 118°13'0 0.0
2015-May-19 19:30N 33°46' W 118°13'0 0.0
2015-May-19 18:33N 33°46' W 118°13'0 0.0
2015-May-19 17:33N 33°46' W 118°13'0 0.0
2015-May-19 16:33N 33°46' W 118°13'0 0.0
2015-May-19 15:33N 33°46' W 118°13'0 0.0
2015-May-19 14:33N 33°46' W 118°13'0 0.0
2015-May-19 13:33N 33°46' W 118°13'1 1.4
2015-May-19 12:33N 33°45' W 118°13'7 6.9
2015-May-19 11:30N 33°38' W 118°10'6 6.2
2015-May-19 10:31N 33°32' W 118°08'9 9.7
2015-May-19 09:33N 33°23' W 118°04'1110.6
2015-May-19 08:33N 33°14' W 118°00'1211.9
2015-May-19 07:34N 33°02' W 117°56'1716.9
2015-May-19 06:33N 32°46' W 117°52'1616.0
2015-May-19 05:33N 32°31' W 117°46'1716.5
2015-May-19 04:33N 32°15' W 117°39'  

Dump ship's entire track history